CAW6 weather

Fort Ware Seaplane Base
British Columbia, Canada

Public forecast

Using degrees Celsius for public forecast. Weather courtesy of forecast.io.

Closest aviation weather report (METAR) to Fort Ware Seaplane Base

Closest report is Fort Nelson Airport, 128.5 nm (238.0 km) NE. Retrieved 2019/10/19 18:11 UTC (59 minutes ago):

CYYE 191811Z 17002KT 2 1/2SM BR SCT003 OVC040 00/00 A2963 RMK SF4ST4 VIS SW 5 SLP054

Closest aviation forecast (TAF) to Fort Ware Seaplane Base

Closest forecast is Fort Nelson Airport, 128.5 nm (238.0 km) NE. Retrieved 2019/10/19 19:42 UTC (0 seconds ago):

TAF CYYE 191838Z 1919/2007 VRB03KT 2SM -SN BR BKN005 OVC040 TEMPO 1919/1922 P6SM -SN SCT005 OVC040 FM192200 VRB03KT P6SM SCT030 BKN060 TEMPO 1922/2004 5SM -SN BR BKN020 OVC040 FM200400 VRB03KT P6SM BKN080 TEMPO 2004/2007 P6SM -SN RMK NXT FCST BY 200100Z